createdAt,value
2019-01-24T00:01:13.292Z,93393.14
2019-01-24T00:03:42.885Z,93392.52
2019-01-24T00:06:12.561Z,93394.61
2019-01-24T00:08:42.130Z,93397.43
2019-01-24T00:11:11.628Z,93408.61
2019-01-24T00:13:41.150Z,93412.67
2019-01-24T00:16:10.681Z,93412.45
2019-01-24T00:18:40.260Z,93415.33
2019-01-24T00:21:09.750Z,93413.75
2019-01-24T00:23:39.280Z,93422.04
2019-01-24T00:26:10.486Z,93427.89
2019-01-24T00:28:40.024Z,93425.94
2019-01-24T00:31:09.598Z,93432.63
2019-01-24T00:33:39.326Z,93435.33
2019-01-24T00:36:08.898Z,93432.40
2019-01-24T00:38:38.466Z,93433.98
2019-01-24T00:41:07.964Z,93440.48
2019-01-24T00:43:37.530Z,93437.16
2019-01-24T00:46:07.055Z,93436.89
2019-01-24T00:48:36.576Z,93441.62
2019-01-24T00:51:06.156Z,93436.67
2019-01-24T00:53:35.687Z,93437.38
2019-01-24T00:56:05.335Z,93438.95
2019-01-24T00:58:34.844Z,93442.84
2019-01-24T01:01:04.479Z,93447.25
2019-01-24T01:03:34.041Z,93444.11
2019-01-24T01:06:03.536Z,93454.44
2019-01-24T01:08:33.066Z,93460.95
2019-01-24T01:11:02.779Z,93458.73
2019-01-24T01:13:32.268Z,93460.38
2019-01-24T01:16:01.840Z,93455.19
2019-01-24T01:18:31.391Z,93463.09
2019-01-24T01:21:01.907Z,93469.92
2019-01-24T01:23:31.465Z,93471.38
2019-01-24T01:26:01.002Z,93473.72
2019-01-24T01:28:30.498Z,93484.38
2019-01-24T01:31:00.072Z,93491.72
2019-01-24T01:33:30.560Z,93489.12
2019-01-24T01:36:00.052Z,93490.44
2019-01-24T01:38:29.622Z,93495.89
2019-01-24T01:40:59.147Z,93499.72
2019-01-24T01:43:28.776Z,93496.73
2019-01-24T01:45:58.803Z,93505.14
2019-01-24T01:48:28.302Z,93501.42
2019-01-24T01:50:57.818Z,93504.18
2019-01-24T01:53:27.333Z,93509.42
2019-01-24T01:55:56.886Z,93510.94
2019-01-24T01:58:27.065Z,93507.67
2019-01-24T02:00:56.785Z,93512.77
2019-01-24T02:03:26.283Z,93512.53
2019-01-24T02:05:55.778Z,93511.92
2019-01-24T02:08:25.466Z,93512.89
2019-01-24T02:10:55.546Z,93512.53
2019-01-24T02:13:25.121Z,93512.24
2019-01-24T02:15:54.704Z,93512.56
2019-01-24T02:18:24.203Z,93513.74
2019-01-24T02:20:53.714Z,93516.77
2019-01-24T02:23:43.558Z,93518.91
2019-01-24T02:26:13.143Z,93518.50
2019-01-24T02:28:42.711Z,93518.16
2019-01-24T02:31:12.239Z,93519.61
2019-01-24T02:33:41.748Z,93522.91
2019-01-24T02:36:11.264Z,93529.79
2019-01-24T02:38:40.756Z,93531.53
2019-01-24T02:41:10.284Z,93537.34
2019-01-24T02:43:40.192Z,93537.12
2019-01-24T02:46:09.709Z,93543.44
2019-01-24T02:48:39.267Z,93545.61
2019-01-24T02:51:08.762Z,93543.65
2019-01-24T02:53:38.254Z,93550.47
2019-01-24T02:56:08.728Z,93553.33
2019-01-24T02:58:38.281Z,93558.78
2019-01-24T03:01:07.942Z,93564.02
2019-01-24T03:03:37.444Z,93569.74
2019-01-24T03:06:07.001Z,93570.67
2019-01-24T03:08:37.090Z,93569.95
2019-01-24T03:11:06.613Z,93580.67
2019-01-24T03:13:36.133Z,93576.29
2019-01-24T03:16:06.026Z,93587.52
2019-01-24T03:18:35.519Z,93585.99
2019-01-24T03:21:05.695Z,93588.49
2019-01-24T03:23:35.278Z,93595.09
2019-01-24T03:26:04.851Z,93598.61
2019-01-24T03:28:34.357Z,93597.33
2019-01-24T03:31:03.909Z,93593.03
2019-01-24T03:33:34.018Z,93594.61
2019-01-24T03:36:03.532Z,93597.77
2019-01-24T03:38:33.078Z,93594.68
2019-01-24T03:41:02.650Z,93597.04
2019-01-24T03:43:32.146Z,93597.44
2019-01-24T03:46:02.516Z,93605.32
2019-01-24T03:48:32.011Z,93604.20
2019-01-24T03:51:01.512Z,93604.02
2019-01-24T03:53:31.073Z,93608.02
2019-01-24T03:56:00.538Z,93611.42
2019-01-24T03:58:30.798Z,93617.48
2019-01-24T04:01:00.545Z,93615.95
2019-01-24T04:03:30.116Z,93624.14
2019-01-24T04:05:59.657Z,93626.52
2019-01-24T04:08:29.190Z,93631.53
2019-01-24T04:10:59.120Z,93638.51
2019-01-24T04:13:28.718Z,93640.08
2019-01-24T04:15:58.236Z,93636.33
2019-01-24T04:18:27.743Z,93638.88
2019-01-24T04:20:57.252Z,93645.41
2019-01-24T04:23:27.393Z,93640.52
2019-01-24T04:25:56.983Z,93653.06
2019-01-24T04:28:26.487Z,93648.77
2019-01-24T04:30:56.007Z,93655.86
2019-01-24T04:33:25.535Z,93658.33
2019-01-24T04:35:55.924Z,93665.29
2019-01-24T04:38:25.466Z,93664.48
2019-01-24T04:40:54.975Z,93664.34
2019-01-24T04:43:24.481Z,93668.48
2019-01-24T04:45:54.078Z,93663.83
2019-01-24T04:48:24.205Z,93669.81
2019-01-24T04:50:53.702Z,93674.61
2019-01-24T04:53:23.218Z,93681.44
2019-01-24T04:55:52.746Z,93688.77
2019-01-24T04:58:22.283Z,93689.09
2019-01-24T05:00:52.688Z,93693.78
2019-01-24T05:03:22.207Z,93698.28
2019-01-24T05:05:51.736Z,93695.00
2019-01-24T05:08:21.271Z,93689.47
2019-01-24T05:10:50.787Z,93701.05
2019-01-24T05:13:21.144Z,93698.98
2019-01-24T05:15:50.730Z,93696.88
2019-01-24T05:18:20.227Z,93703.27
2019-01-24T05:21:09.126Z,93707.23
2019-01-24T05:23:38.636Z,93712.11
2019-01-24T05:26:09.665Z,93715.15
2019-01-24T05:28:58.505Z,93712.13
2019-01-24T05:31:29.791Z,93714.22
2019-01-24T05:33:59.299Z,93723.08
2019-01-24T05:36:28.819Z,93721.86
2019-01-24T05:38:58.302Z,93720.06
2019-01-24T05:41:27.824Z,93724.59
2019-01-24T05:43:58.089Z,93721.59
2019-01-24T05:46:27.630Z,93727.55
2019-01-24T05:48:57.126Z,93726.20
2019-01-24T05:51:26.628Z,93725.21
2019-01-24T05:53:56.155Z,93729.05
2019-01-24T05:56:26.446Z,93733.14
2019-01-24T05:58:55.931Z,93734.88
2019-01-24T06:01:25.850Z,93741.23
2019-01-24T06:03:55.452Z,93748.20
2019-01-24T06:06:24.956Z,93750.19
2019-01-24T06:08:54.746Z,93754.98
2019-01-24T06:11:24.292Z,93754.64
2019-01-24T06:13:53.817Z,93765.48
2019-01-24T06:16:23.392Z,93762.93
2019-01-24T06:18:52.915Z,93766.78
2019-01-24T06:21:23.100Z,93771.89
2019-01-24T06:23:52.603Z,93773.06
2019-01-24T06:26:22.115Z,93777.97
2019-01-24T06:28:51.615Z,93781.89
2019-01-24T06:31:21.134Z,93782.82
2019-01-24T06:33:51.375Z,93787.27
2019-01-24T06:36:20.893Z,93792.73
2019-01-24T06:38:50.395Z,93796.14
2019-01-24T06:41:19.928Z,93792.42
2019-01-24T06:43:49.435Z,93792.41
2019-01-24T06:46:19.680Z,93786.73
2019-01-24T06:48:49.199Z,93785.98
2019-01-24T06:51:18.750Z,93785.28
2019-01-24T06:53:48.260Z,93783.89
2019-01-24T06:56:17.771Z,93793.69
2019-01-24T06:58:48.101Z,93802.91
2019-01-24T07:01:17.617Z,93801.95
2019-01-24T07:03:47.224Z,93805.48
2019-01-24T07:06:16.723Z,93802.52
2019-01-24T07:08:46.251Z,93807.20
2019-01-24T07:11:16.434Z,93813.09
2019-01-24T07:13:45.957Z,93820.44
2019-01-24T07:16:15.466Z,93825.67
2019-01-24T07:18:44.999Z,93822.77
2019-01-24T07:21:14.503Z,93828.28
2019-01-24T07:23:45.045Z,93832.91
2019-01-24T07:26:14.560Z,93833.48
2019-01-24T07:28:44.085Z,93828.95
2019-01-24T07:31:13.704Z,93833.37
2019-01-24T07:33:43.191Z,93828.88
2019-01-24T07:36:13.517Z,93833.03
2019-01-24T07:38:43.034Z,93836.20
2019-01-24T07:41:12.536Z,93841.20
2019-01-24T07:43:42.042Z,93835.72
2019-01-24T07:46:11.859Z,93842.17
2019-01-24T07:48:41.940Z,93849.38
2019-01-24T07:51:11.451Z,93848.80
2019-01-24T07:53:40.969Z,93844.19
2019-01-24T07:56:10.474Z,93845.61
2019-01-24T07:58:40.043Z,93846.00
2019-01-24T08:01:10.118Z,93849.86
2019-01-24T08:03:39.632Z,93858.03
2019-01-24T08:06:09.432Z,93867.56
2019-01-24T08:08:38.914Z,93865.44
2019-01-24T08:11:08.409Z,93867.22
2019-01-24T08:13:38.483Z,93869.33
2019-01-24T08:16:08.007Z,93869.43
2019-01-24T08:18:37.519Z,93876.55
2019-01-24T08:21:07.016Z,93883.26
2019-01-24T08:23:36.550Z,93887.98
2019-01-24T08:26:07.045Z,93892.80
2019-01-24T08:28:36.566Z,93880.48
2019-01-24T08:31:06.312Z,93883.13
2019-01-24T08:33:35.837Z,93887.02
2019-01-24T08:36:05.520Z,93888.17
2019-01-24T08:38:35.451Z,93888.56
2019-01-24T08:41:05.033Z,93890.20
2019-01-24T08:43:34.548Z,93885.70
2019-01-24T08:46:04.120Z,93890.19
2019-01-24T08:48:33.647Z,93893.59
2019-01-24T08:51:03.809Z,93892.44
2019-01-24T08:53:52.671Z,93890.64
2019-01-24T08:56:22.174Z,93884.24
2019-01-24T08:58:51.714Z,93883.57
2019-01-24T09:01:21.290Z,93885.05
2019-01-24T09:03:50.817Z,93889.36
2019-01-24T09:06:22.653Z,93889.45
2019-01-24T09:08:51.573Z,93891.19
2019-01-24T09:11:21.085Z,93890.70
2019-01-24T09:13:50.603Z,93881.77
2019-01-24T09:16:20.089Z,93887.36
2019-01-24T09:18:49.598Z,93879.39
2019-01-24T09:21:38.422Z,93888.63
2019-01-24T09:24:07.938Z,93890.64
2019-01-24T09:26:37.447Z,93904.37
2019-01-24T09:29:07.029Z,93896.73
2019-01-24T09:31:37.037Z,93906.71
2019-01-24T09:34:06.551Z,93912.95
2019-01-24T09:36:36.113Z,93914.39
2019-01-24T09:39:08.473Z,93916.76
2019-01-24T09:41:37.960Z,93917.55
2019-01-24T09:44:07.485Z,93913.21
2019-01-24T09:46:36.992Z,93913.34
2019-01-24T09:49:06.735Z,93921.12
2019-01-24T09:51:36.224Z,93931.23
2019-01-24T09:54:05.822Z,93925.61
2019-01-24T09:56:36.629Z,93921.91
2019-01-24T09:59:06.145Z,93908.27
2019-01-24T10:01:35.633Z,93909.22
2019-01-24T10:04:05.139Z,93915.88
2019-01-24T10:06:36.381Z,93919.00
2019-01-24T10:09:08.322Z,93918.66
2019-01-24T10:11:37.899Z,93923.19
2019-01-24T10:14:07.573Z,93922.23
2019-01-24T10:16:37.115Z,93922.92
2019-01-24T10:19:06.698Z,93928.66
2019-01-24T10:21:36.202Z,93928.76
2019-01-24T10:24:05.952Z,93934.28
2019-01-24T10:26:35.503Z,93931.05
2019-01-24T10:29:05.046Z,93925.87
2019-01-24T10:31:34.599Z,93929.70
2019-01-24T10:34:04.683Z,93930.72
2019-01-24T10:36:35.403Z,93927.86
2019-01-24T10:39:08.099Z,93934.60
2019-01-24T10:41:37.686Z,93936.43
2019-01-24T10:44:07.168Z,93940.68
2019-01-24T10:46:36.672Z,93939.31
2019-01-24T10:49:06.205Z,93932.88
2019-01-24T10:51:35.783Z,93929.41
2019-01-24T10:54:05.304Z,93921.76
2019-01-24T10:56:35.330Z,93926.15
2019-01-24T10:59:04.924Z,93927.67
2019-01-24T11:01:34.436Z,93928.35
2019-01-24T11:04:04.077Z,93920.28
2019-01-24T11:06:33.632Z,93921.13
2019-01-24T11:09:04.623Z,93924.64
2019-01-24T11:11:34.128Z,93930.98
2019-01-24T11:14:03.729Z,93940.28
2019-01-24T11:16:33.665Z,93939.57
2019-01-24T11:19:03.227Z,93939.22
2019-01-24T11:21:34.280Z,93932.59
2019-01-24T11:24:03.936Z,93934.38
2019-01-24T11:26:33.441Z,93940.16
2019-01-24T11:29:02.930Z,93932.61
2019-01-24T11:31:32.504Z,93932.50
2019-01-24T11:34:02.075Z,93926.87
2019-01-24T11:36:31.578Z,93934.12
2019-01-24T11:39:01.107Z,93931.81
2019-01-24T11:41:30.620Z,93922.80
2019-01-24T11:44:00.101Z,93920.88
2019-01-24T11:46:29.620Z,93916.67
2019-01-24T11:48:59.124Z,93921.23
2019-01-24T11:51:28.751Z,93921.22
2019-01-24T11:53:58.255Z,93925.27
2019-01-24T11:56:27.796Z,93925.33
2019-01-24T11:58:57.277Z,93922.73
2019-01-24T12:01:26.820Z,93923.80
2019-01-24T12:03:56.326Z,93918.93
2019-01-24T12:06:25.814Z,93922.16
2019-01-24T12:08:55.339Z,93925.25
2019-01-24T12:11:24.865Z,93926.25
2019-01-24T12:13:54.377Z,93923.18
2019-01-24T12:16:23.897Z,93923.81
2019-01-24T12:18:54.555Z,93909.92
2019-01-24T12:21:24.096Z,93909.70
2019-01-24T12:23:53.624Z,93906.06
2019-01-24T12:26:23.137Z,93906.47
2019-01-24T12:28:52.631Z,93902.89
2019-01-24T12:31:22.262Z,93902.23
2019-01-24T12:33:51.755Z,93904.56
2019-01-24T12:36:21.382Z,93902.48
2019-01-24T12:38:50.879Z,93905.44
2019-01-24T12:41:20.504Z,93911.55
2019-01-24T12:43:50.531Z,93918.37
2019-01-24T12:46:20.092Z,93919.45
2019-01-24T12:48:49.697Z,93921.13
2019-01-24T12:51:19.228Z,93922.82
2019-01-24T12:53:48.841Z,93923.52
2019-01-24T12:56:18.952Z,93924.80
2019-01-24T12:58:48.524Z,93931.67
2019-01-24T13:01:18.014Z,93925.20
2019-01-24T13:03:47.544Z,93926.91
2019-01-24T13:06:17.069Z,93923.93
2019-01-24T13:08:47.241Z,93931.75
2019-01-24T13:11:16.727Z,93930.62
2019-01-24T13:13:46.292Z,93944.73
2019-01-24T13:16:15.830Z,93945.06
2019-01-24T13:18:45.371Z,93952.13
2019-01-24T13:21:15.668Z,93948.63
2019-01-24T13:23:45.221Z,93947.33
2019-01-24T13:26:14.739Z,93949.99
2019-01-24T13:28:44.267Z,93953.72
2019-01-24T13:31:13.782Z,93951.06
2019-01-24T13:33:43.871Z,93952.63
2019-01-24T13:36:13.404Z,93954.63
2019-01-24T13:38:42.911Z,93966.63
2019-01-24T13:41:12.451Z,93961.38
2019-01-24T13:43:41.959Z,93961.66
2019-01-24T13:46:12.134Z,93967.30
2019-01-24T13:48:41.635Z,93970.34
2019-01-24T13:51:11.172Z,93975.81
2019-01-24T13:53:40.658Z,93974.20
2019-01-24T13:56:10.193Z,93977.89
2019-01-24T13:58:40.304Z,93976.70
2019-01-24T14:01:09.905Z,93985.41
2019-01-24T14:03:42.140Z,93978.11
2019-01-24T14:06:12.025Z,93982.32
2019-01-24T14:08:41.518Z,93977.20
2019-01-24T14:11:17.863Z,93982.70
2019-01-24T14:13:42.283Z,93983.73
2019-01-24T14:16:11.815Z,93986.29
2019-01-24T14:18:41.354Z,93984.07
2019-01-24T14:21:10.910Z,93991.56
2019-01-24T14:23:40.540Z,93988.86
2019-01-24T14:26:10.144Z,93985.45
2019-01-24T14:28:39.644Z,93995.47
2019-01-24T14:31:09.325Z,93996.23
2019-01-24T14:33:38.876Z,93993.09
2019-01-24T14:36:09.303Z,94004.23
2019-01-24T14:38:39.010Z,94001.93
2019-01-24T14:41:08.486Z,94002.72
2019-01-24T14:43:38.023Z,94006.36
2019-01-24T14:46:07.824Z,94007.64
2019-01-24T14:48:37.353Z,94004.72
2019-01-24T14:51:07.341Z,94006.44
2019-01-24T14:53:36.874Z,94008.79
2019-01-24T14:56:06.647Z,94010.37
2019-01-24T14:58:36.148Z,94015.91
2019-01-24T15:01:07.689Z,94025.02
2019-01-24T15:03:37.195Z,94020.87
2019-01-24T15:06:06.801Z,94023.03
2019-01-24T15:08:36.349Z,94027.67
2019-01-24T15:11:06.022Z,94034.19
2019-01-24T15:13:35.545Z,94034.13
2019-01-24T15:16:05.326Z,94039.14
2019-01-24T15:18:34.926Z,94032.73
2019-01-24T15:21:04.706Z,94034.52
2019-01-24T15:23:34.249Z,94039.23
2019-01-24T15:26:03.904Z,94042.68
2019-01-24T15:28:33.391Z,94045.93
2019-01-24T15:31:02.930Z,94042.00
2019-01-24T15:33:32.512Z,94043.67
2019-01-24T15:36:02.089Z,94045.31
2019-01-24T15:38:31.574Z,94050.56
2019-01-24T15:41:13.711Z,94061.55
2019-01-24T15:43:43.214Z,94059.69
2019-01-24T15:46:12.750Z,94060.98
2019-01-24T15:48:43.087Z,94071.17
2019-01-24T15:51:12.758Z,94069.41
2019-01-24T15:53:42.369Z,94074.32
2019-01-24T15:56:11.873Z,94079.70
2019-01-24T15:58:41.489Z,94079.03
2019-01-24T16:01:11.102Z,94077.88
2019-01-24T16:03:40.608Z,94083.03
2019-01-24T16:06:10.182Z,94094.83
2019-01-24T16:08:39.751Z,94095.44
2019-01-24T16:11:09.234Z,94104.70
2019-01-24T16:13:40.033Z,94104.81
2019-01-24T16:16:09.560Z,94114.65
2019-01-24T16:18:39.093Z,94118.05
2019-01-24T16:21:08.617Z,94123.69
2019-01-24T16:23:38.192Z,94128.95
2019-01-24T16:26:10.401Z,94131.27
2019-01-24T16:28:39.898Z,94134.67
2019-01-24T16:31:09.440Z,94134.73
2019-01-24T16:33:38.953Z,94136.02
2019-01-24T16:36:08.639Z,94137.55
2019-01-24T16:38:38.161Z,94136.85
2019-01-24T16:41:08.066Z,94142.67
2019-01-24T16:43:37.612Z,94137.58
2019-01-24T16:46:07.241Z,94145.08
2019-01-24T16:48:36.751Z,94148.13
2019-01-24T16:51:06.376Z,94148.86
2019-01-24T16:53:35.887Z,94155.31
2019-01-24T16:56:06.086Z,94158.50
2019-01-24T16:58:35.647Z,94159.70
2019-01-24T17:01:05.752Z,94159.81
2019-01-24T17:03:35.295Z,94163.93
2019-01-24T17:06:05.000Z,94155.75
2019-01-24T17:08:34.577Z,94159.02
2019-01-24T17:11:04.151Z,94163.33
2019-01-24T17:13:33.696Z,94161.13
2019-01-24T17:16:03.418Z,94170.72
2019-01-24T17:18:34.145Z,94170.02
2019-01-24T17:21:03.842Z,94179.27
2019-01-24T17:23:33.513Z,94179.14
2019-01-24T17:26:03.144Z,94180.88
2019-01-24T17:28:32.723Z,94184.16
2019-01-24T17:31:02.914Z,94185.91
2019-01-24T17:33:32.450Z,94180.77
2019-01-24T17:36:02.081Z,94185.13
2019-01-24T17:38:31.744Z,94193.16
2019-01-24T17:41:01.291Z,94191.66
2019-01-24T17:43:31.457Z,94194.92
2019-01-24T17:46:01.041Z,94193.73
2019-01-24T17:48:30.552Z,94203.45
2019-01-24T17:51:00.086Z,94207.68
2019-01-24T17:53:29.588Z,94210.59
2019-01-24T17:55:59.926Z,94212.34
2019-01-24T17:58:29.601Z,94211.77
2019-01-24T18:01:18.438Z,94218.77
2019-01-24T18:03:48.126Z,94219.71
2019-01-24T18:06:17.781Z,94217.15
2019-01-24T18:08:47.314Z,94217.61
2019-01-24T18:11:16.874Z,94218.20
2019-01-24T18:13:46.383Z,94230.33
2019-01-24T18:16:15.929Z,94236.52
2019-01-24T18:18:45.492Z,94236.20
2019-01-24T18:21:15.038Z,94238.27
2019-01-24T18:23:44.547Z,94242.81
2019-01-24T18:26:14.369Z,94247.71
2019-01-24T18:28:43.861Z,94252.25
2019-01-24T18:31:13.364Z,94251.57
2019-01-24T18:33:42.909Z,94253.91
2019-01-24T18:36:31.792Z,94255.42
2019-01-24T18:39:20.684Z,94264.42
2019-01-24T18:42:09.682Z,94267.46
2019-01-24T18:44:39.172Z,94273.77
2019-01-24T18:47:08.734Z,94275.73
2019-01-24T18:49:38.242Z,94274.45
2019-01-24T18:52:07.886Z,94276.33
2019-01-24T18:54:37.447Z,94280.73
2019-01-24T18:57:07.349Z,94285.37
2019-01-24T18:59:36.887Z,94282.82
2019-01-24T19:02:06.609Z,94286.89
2019-01-24T19:04:36.138Z,94287.48
2019-01-24T19:07:05.755Z,94291.21
2019-01-24T19:09:35.351Z,94294.59
2019-01-24T19:12:04.937Z,94298.45
2019-01-24T19:14:34.519Z,94305.55
2019-01-24T19:17:04.124Z,94306.34
2019-01-24T19:19:33.674Z,94302.33
2019-01-24T19:22:03.221Z,94312.98
2019-01-24T19:24:34.114Z,94305.84
2019-01-24T19:27:23.076Z,94311.92
2019-01-24T19:33:14.426Z,94312.84
2019-01-24T19:35:44.097Z,94317.88
2019-01-24T19:38:13.764Z,94315.55
2019-01-24T19:40:43.303Z,94316.33
2019-01-24T19:43:12.829Z,94331.17
2019-01-24T19:45:44.053Z,94320.66
2019-01-24T19:48:14.483Z,94329.50
2019-01-24T19:50:44.050Z,94331.70
2019-01-24T19:53:13.714Z,94330.34
2019-01-24T19:55:43.590Z,94334.20
2019-01-24T19:58:13.078Z,94338.00
2019-01-24T20:00:42.699Z,94340.38
2019-01-24T20:03:12.327Z,94345.36
2019-01-24T20:05:41.828Z,94350.59
2019-01-24T20:08:11.472Z,94348.05
2019-01-24T20:10:41.035Z,94344.97
2019-01-24T20:13:11.028Z,94346.75
2019-01-24T20:15:40.540Z,94359.58
2019-01-24T20:18:10.167Z,94363.16
2019-01-24T20:20:39.702Z,94364.56
2019-01-24T20:23:09.502Z,94366.77
2019-01-24T20:25:39.238Z,94369.30
2019-01-24T20:28:08.841Z,94373.58
2019-01-24T20:30:38.411Z,94375.49
2019-01-24T20:33:07.984Z,94380.02
2019-01-24T20:35:41.670Z,94389.23
2019-01-24T20:38:12.543Z,94380.59
2019-01-24T20:40:42.124Z,94384.78
2019-01-24T20:43:13.811Z,94392.97
2019-01-24T20:45:43.394Z,94391.91
2019-01-24T20:48:13.178Z,94399.52
2019-01-24T20:50:42.823Z,94394.14
2019-01-24T20:53:12.813Z,94405.31
2019-01-24T20:55:42.320Z,94403.38
2019-01-24T20:58:11.829Z,94401.02
2019-01-24T21:00:41.477Z,94406.03
2019-01-24T21:03:11.023Z,94404.30
2019-01-24T21:05:40.600Z,94409.01
2019-01-24T21:08:10.106Z,94405.98
2019-01-24T21:10:39.730Z,94398.50
2019-01-24T21:13:09.235Z,94400.20
2019-01-24T21:15:38.791Z,94409.27
2019-01-24T21:18:08.283Z,94404.22
2019-01-24T21:20:37.899Z,94406.25
2019-01-24T21:23:07.652Z,94409.09
2019-01-24T21:25:37.260Z,94407.45
2019-01-24T21:28:07.091Z,94412.95
2019-01-24T21:30:38.134Z,94416.67
2019-01-24T21:33:08.537Z,94417.91
2019-01-24T21:35:38.147Z,94423.38
2019-01-24T21:38:08.299Z,94417.91
2019-01-24T21:40:37.874Z,94419.28
2019-01-24T21:43:07.489Z,94417.20
2019-01-24T21:45:38.525Z,94424.24
2019-01-24T21:48:08.972Z,94429.75
2019-01-24T21:50:38.570Z,94433.09
2019-01-24T21:53:08.360Z,94431.16
2019-01-24T21:55:37.995Z,94433.14
2019-01-24T21:58:08.206Z,94440.38
2019-01-24T22:00:37.847Z,94440.17
2019-01-24T22:03:07.535Z,94442.66
2019-01-24T22:05:37.186Z,94438.02
2019-01-24T22:08:07.017Z,94445.34
2019-01-24T22:10:36.519Z,94442.78
2019-01-24T22:13:07.484Z,94451.34
2019-01-24T22:15:37.054Z,94447.16
2019-01-24T22:18:06.989Z,94454.33
2019-01-24T22:20:36.552Z,94457.34
2019-01-24T22:23:06.548Z,94454.48
2019-01-24T22:25:36.304Z,94460.73
2019-01-24T22:28:25.158Z,94465.16
2019-01-24T22:30:56.472Z,94472.56
2019-01-24T22:33:25.999Z,94464.14
2019-01-24T22:35:55.507Z,94474.13
2019-01-24T22:38:25.036Z,94472.91
2019-01-24T22:40:54.541Z,94469.22
2019-01-24T22:43:24.086Z,94476.73
2019-01-24T22:45:53.639Z,94472.84
2019-01-24T22:48:23.167Z,94478.68
2019-01-24T22:50:52.706Z,94475.48
2019-01-24T22:53:22.172Z,94479.53
2019-01-24T22:55:51.677Z,94476.72
2019-01-24T22:58:22.447Z,94478.11
2019-01-24T23:01:02.940Z,94479.48
2019-01-24T23:06:53.905Z,94485.55
2019-01-24T23:09:23.564Z,94481.16
2019-01-24T23:11:53.110Z,94477.51
2019-01-24T23:14:22.824Z,94474.72
2019-01-24T23:16:52.322Z,94481.33
2019-01-24T23:19:21.828Z,94483.18
2019-01-24T23:21:51.347Z,94482.70
2019-01-24T23:24:20.880Z,94474.63
2019-01-24T23:26:50.362Z,94472.12
2019-01-24T23:29:19.992Z,94476.09
2019-01-24T23:31:49.491Z,94478.10
2019-01-24T23:34:19.018Z,94485.69
2019-01-24T23:36:48.523Z,94480.89
2019-01-24T23:39:18.069Z,94477.33
2019-01-24T23:41:47.603Z,94479.67
2019-01-24T23:44:17.125Z,94480.84
2019-01-24T23:46:46.628Z,94476.20
2019-01-24T23:49:17.298Z,94482.70
2019-01-24T23:51:46.795Z,94479.48
2019-01-24T23:54:16.314Z,94482.77
2019-01-24T23:56:45.903Z,94478.98
2019-01-24T23:59:15.460Z,94485.00
